Impacts METAR Board
IDs:

KDCA - Washington/National, VA, US

Updated at: 0800 UTC 24 May 2018
Potential Impact None Slight Moderate High
Time 23/20Z 23/21Z 23/22Z 23/23Z 24/00Z 24/01Z 24/02Z 24/03Z 24/04Z 24/05Z 24/06Z 24/07Z 24/08Z
Temp83 82 81 79 77 75 73 72 69 67 66 65 65
Dewpt59 58 56 56 56 56 56 56 57 58 60 61 58
Altim30.03 30.02 30.02 30.03 30.04 30.07 30.08 30.09 30.10 30.11 30.11 30.11 30.12
VIS10 10 10 10 10 10 10 10 10 10 10 10 10
CIG60 55 -- -- 250 250 250 -- -- -- -- -- --
CoverBKNBKNSCTSCTBKNBKNBKNFEWFEWFEWSCTCLRCLR
FltCatVFRVFRVFRVFRVFRVFRVFRVFRVFRVFRVFRVFRVFR
WX--------------------------
WDir320330330350320330320330350015018070
WSpd14 13 12 10 10 10 9 7 5 0 3 5 4
WGst18 18 -- -- -- -- -- -- -- -- -- -- --
Raw hourly METARs
KDCA 231952Z 32014G18KT 10SM BKN060 BKN250 28/15 A3003 RMK AO2 SLP168 T02830150
KDCA 232052Z 33013G18KT 10SM BKN055 BKN250 28/14 A3002 RMK AO2 SLP166 T02780144 58002
KDCA 232152Z 33012KT 10SM SCT055 SCT250 27/13 A3002 RMK AO2 SLP165 T02720133
KDCA 232252Z 35010KT 10SM SCT055 SCT250 26/13 A3003 RMK AO2 SLP169 T02610133
KDCA 232352Z 32010KT 10SM FEW055 BKN250 25/13 A3004 RMK AO2 SLP173 CB DSNT S-SW MOV SE T02500133 10283 20250 53007
KDCA 240052Z 33010KT 10SM FEW065 BKN250 24/13 A3007 RMK AO2 SLP182 T02390133
KDCA 240152Z 32009KT 10SM FEW070 BKN250 23/13 A3008 RMK AO2 SLP186 T02280133
KDCA 240252Z 33007KT 10SM FEW250 22/13 A3009 RMK AO2 SLP189 T02220133 51016
KDCA 240352Z 35005KT 10SM FEW250 21/14 A3010 RMK AO2 SLP191 T02060139
KDCA 240452Z 00000KT 10SM FEW250 19/14 A3011 RMK AO2 SLP195 T01940144 402830189
KDCA 240552Z 15003KT 10SM SCT250 19/16 A3011 RMK AO2 SLP196 T01890156 10250 20189 51006
KDCA 240652Z 18005KT 10SM CLR 18/16 A3011 RMK AO2 SLP197 T01830161
KDCA 240752Z 07004KT 10SM CLR 18/14 A3012 RMK AO2 SLP198 T01830144



Page loaded:  08:00 UTC  |   01:00 AM Pacific  |   02:00 AM Mountain  |   03:00 AM Central  |   04:00 AM Eastern

 

ADVISORIES

FORECASTS

FORECASTS

OBSERVATIONS

USER TOOLS

ABOUT US